sim
Sign-in with your pilot id or email,
or register
Callsign
Passwort

Schedule Details

Flight Number: DLH2099
Departure: Hannover Langenhagen Airport (EDDV) at 16:25
Arrival: Munich Airport (EDDM) at 17:35
Route: Lufthansa Passenger Schedule. Enter filed route here before submitting Pirep.

Weather Information
Getting current METAR information for EDDV 262020Z 26013KT 3800 -RA SCT004 BKN015 10/10 Q0992 RERA TEMPO 6000 RA BKN004
Getting current METAR information for EDDM 262020Z 24018KT 9999 -RA BKN022 BKN034 07/04 Q1001 NOSIG

Schedule Frequency

Route Map